sensor_id;sensor_type;location;lat;lon;timestamp;P1;durP1;ratioP1;P2;durP2;ratioP2
78004;SDS011;67209;51.698;-0.292;2023-04-30T00:00:24;34.17;;;15.45;;
78004;SDS011;67209;51.698;-0.292;2023-04-30T00:02:50;29.70;;;14.57;;
78004;SDS011;67209;51.698;-0.292;2023-04-30T00:05:16;37.35;;;16.55;;
78004;SDS011;67209;51.698;-0.292;2023-04-30T00:07:42;33.90;;;16.05;;
78004;SDS011;67209;51.698;-0.292;2023-04-30T00:10:09;38.50;;;16.52;;
78004;SDS011;67209;51.698;-0.292;2023-04-30T00:12:35;35.10;;;16.08;;
78004;SDS011;67209;51.698;-0.292;2023-04-30T00:15:01;35.00;;;15.07;;
78004;SDS011;67209;51.698;-0.292;2023-04-30T00:17:27;37.33;;;17.15;;
78004;SDS011;67209;51.698;-0.292;2023-04-30T00:19:53;40.53;;;18.48;;
78004;SDS011;67209;51.698;-0.292;2023-04-30T00:22:20;37.67;;;16.55;;
78004;SDS011;67209;51.698;-0.292;2023-04-30T00:24:46;43.83;;;17.73;;
78004;SDS011;67209;51.698;-0.292;2023-04-30T00:27:12;37.53;;;17.80;;
78004;SDS011;67209;51.698;-0.292;2023-04-30T00:29:38;41.35;;;17.27;;
78004;SDS011;67209;51.698;-0.292;2023-04-30T00:32:05;36.63;;;16.95;;
78004;SDS011;67209;51.698;-0.292;2023-04-30T00:34:31;38.83;;;18.58;;
78004;SDS011;67209;51.698;-0.292;2023-04-30T00:36:57;42.42;;;18.33;;
78004;SDS011;67209;51.698;-0.292;2023-04-30T00:39:23;40.60;;;18.75;;
78004;SDS011;67209;51.698;-0.292;2023-04-30T00:41:49;38.90;;;18.35;;
78004;SDS011;67209;51.698;-0.292;2023-04-30T00:44:15;41.63;;;19.38;;
78004;SDS011;67209;51.698;-0.292;2023-04-30T00:46:41;42.55;;;17.48;;
78004;SDS011;67209;51.698;-0.292;2023-04-30T00:49:07;34.15;;;17.33;;
78004;SDS011;67209;51.698;-0.292;2023-04-30T00:51:33;41.30;;;18.40;;
78004;SDS011;67209;51.698;-0.292;2023-04-30T00:54:00;43.55;;;19.00;;
78004;SDS011;67209;51.698;-0.292;2023-04-30T00:56:27;36.63;;;17.10;;
78004;SDS011;67209;51.698;-0.292;2023-04-30T00:58:55;44.60;;;19.42;;
78004;SDS011;67209;51.698;-0.292;2023-04-30T01:01:22;42.25;;;18.05;;
78004;SDS011;67209;51.698;-0.292;2023-04-30T01:03:49;38.50;;;18.67;;
78004;SDS011;67209;51.698;-0.292;2023-04-30T01:06:15;41.05;;;18.95;;
78004;SDS011;67209;51.698;-0.292;2023-04-30T01:08:41;40.47;;;18.77;;
78004;SDS011;67209;51.698;-0.292;2023-04-30T01:14:03;39.45;;;18.67;;
78004;SDS011;67209;51.698;-0.292;2023-04-30T01:16:34;39.30;;;17.85;;
78004;SDS011;67209;51.698;-0.292;2023-04-30T01:19:04;41.60;;;18.67;;
78004;SDS011;67209;51.698;-0.292;2023-04-30T01:21:30;44.10;;;19.13;;
78004;SDS011;67209;51.698;-0.292;2023-04-30T01:29:18;43.25;;;19.10;;
78004;SDS011;67209;51.698;-0.292;2023-04-30T01:31:44;39.92;;;19.23;;
78004;SDS011;67209;51.698;-0.292;2023-04-30T01:34:10;41.70;;;18.02;;
78004;SDS011;67209;51.698;-0.292;2023-04-30T01:46:55;38.25;;;18.00;;
78004;SDS011;67209;51.698;-0.292;2023-04-30T01:51:49;36.60;;;17.02;;
78004;SDS011;67209;51.698;-0.292;2023-04-30T01:54:28;41.17;;;18.30;;
78004;SDS011;67209;51.698;-0.292;2023-04-30T01:57:11;35.55;;;16.77;;
78004;SDS011;67209;51.698;-0.292;2023-04-30T01:59:38;36.75;;;17.20;;
78004;SDS011;67209;51.698;-0.292;2023-04-30T02:02:05;37.80;;;17.55;;
78004;SDS011;67209;51.698;-0.292;2023-04-30T02:04:31;34.50;;;16.10;;
78004;SDS011;67209;51.698;-0.292;2023-04-30T02:06:57;34.75;;;16.13;;
78004;SDS011;67209;51.698;-0.292;2023-04-30T02:09:23;33.85;;;16.15;;
78004;SDS011;67209;51.698;-0.292;2023-04-30T02:11:49;33.33;;;14.27;;
78004;SDS011;67209;51.698;-0.292;2023-04-30T02:14:16;39.40;;;16.20;;
78004;SDS011;67209;51.698;-0.292;2023-04-30T02:16:41;32.85;;;14.60;;
78004;SDS011;67209;51.698;-0.292;2023-04-30T02:19:07;29.95;;;15.43;;
78004;SDS011;67209;51.698;-0.292;2023-04-30T02:21:33;33.58;;;15.70;;
78004;SDS011;67209;51.698;-0.292;2023-04-30T02:23:59;36.67;;;15.45;;
78004;SDS011;67209;51.698;-0.292;2023-04-30T02:26:25;31.85;;;15.65;;
78004;SDS011;67209;51.698;-0.292;2023-04-30T02:28:52;32.35;;;15.70;;
78004;SDS011;67209;51.698;-0.292;2023-04-30T02:31:18;35.47;;;14.85;;
78004;SDS011;67209;51.698;-0.292;2023-04-30T02:33:44;33.33;;;15.93;;
78004;SDS011;67209;51.698;-0.292;2023-04-30T02:36:10;38.70;;;16.85;;
78004;SDS011;67209;51.698;-0.292;2023-04-30T02:38:36;32.10;;;15.15;;
78004;SDS011;67209;51.698;-0.292;2023-04-30T02:41:02;35.45;;;16.73;;
78004;SDS011;67209;51.698;-0.292;2023-04-30T02:43:28;37.75;;;15.30;;
78004;SDS011;67209;51.698;-0.292;2023-04-30T02:45:54;31.60;;;14.80;;
78004;SDS011;67209;51.698;-0.292;2023-04-30T02:48:20;35.05;;;15.10;;
78004;SDS011;67209;51.698;-0.292;2023-04-30T02:50:46;36.33;;;16.85;;
78004;SDS011;67209;51.698;-0.292;2023-04-30T02:53:12;33.58;;;15.52;;
78004;SDS011;67209;51.698;-0.292;2023-04-30T02:55:38;31.95;;;14.95;;
78004;SDS011;67209;51.698;-0.292;2023-04-30T02:58:04;34.45;;;15.82;;
78004;SDS011;67209;51.698;-0.292;2023-04-30T03:00:30;30.10;;;15.40;;
78004;SDS011;67209;51.698;-0.292;2023-04-30T03:02:56;32.58;;;15.85;;
78004;SDS011;67209;51.698;-0.292;2023-04-30T03:05:22;31.27;;;13.65;;
78004;SDS011;67209;51.698;-0.292;2023-04-30T03:07:48;31.95;;;15.85;;
78004;SDS011;67209;51.698;-0.292;2023-04-30T03:10:14;34.30;;;15.55;;
78004;SDS011;67209;51.698;-0.292;2023-04-30T03:12:42;31.55;;;14.38;;
78004;SDS011;67209;51.698;-0.292;2023-04-30T03:15:09;31.70;;;15.68;;
78004;SDS011;67209;51.698;-0.292;2023-04-30T03:17:35;33.60;;;14.90;;
78004;SDS011;67209;51.698;-0.292;2023-04-30T03:20:01;32.78;;;15.10;;
78004;SDS011;67209;51.698;-0.292;2023-04-30T03:22:27;33.67;;;14.63;;
78004;SDS011;67209;51.698;-0.292;2023-04-30T03:24:53;34.35;;;16.35;;
78004;SDS011;67209;51.698;-0.292;2023-04-30T03:27:19;30.08;;;15.40;;
78004;SDS011;67209;51.698;-0.292;2023-04-30T03:29:45;39.15;;;17.10;;
78004;SDS011;67209;51.698;-0.292;2023-04-30T03:32:11;34.33;;;16.63;;
78004;SDS011;67209;51.698;-0.292;2023-04-30T03:34:37;35.63;;;16.15;;
78004;SDS011;67209;51.698;-0.292;2023-04-30T03:37:03;36.92;;;15.48;;
78004;SDS011;67209;51.698;-0.292;2023-04-30T03:39:29;33.17;;;16.58;;
78004;SDS011;67209;51.698;-0.292;2023-04-30T03:41:55;35.55;;;15.75;;
78004;SDS011;67209;51.698;-0.292;2023-04-30T03:44:21;34.92;;;16.25;;
78004;SDS011;67209;51.698;-0.292;2023-04-30T03:46:47;33.55;;;15.18;;
78004;SDS011;67209;51.698;-0.292;2023-04-30T03:49:13;34.88;;;16.10;;
78004;SDS011;67209;51.698;-0.292;2023-04-30T03:51:39;34.90;;;15.45;;
78004;SDS011;67209;51.698;-0.292;2023-04-30T03:54:06;36.35;;;17.23;;
78004;SDS011;67209;51.698;-0.292;2023-04-30T03:56:32;31.35;;;16.63;;
78004;SDS011;67209;51.698;-0.292;2023-04-30T03:58:58;34.80;;;16.13;;
78004;SDS011;67209;51.698;-0.292;2023-04-30T04:01:24;34.38;;;15.90;;
78004;SDS011;67209;51.698;-0.292;2023-04-30T04:03:50;33.35;;;15.43;;
78004;SDS011;67209;51.698;-0.292;2023-04-30T04:06:16;38.08;;;17.95;;
78004;SDS011;67209;51.698;-0.292;2023-04-30T04:08:42;38.55;;;17.00;;
78004;SDS011;67209;51.698;-0.292;2023-04-30T04:11:09;40.65;;;17.25;;
78004;SDS011;67209;51.698;-0.292;2023-04-30T04:13:35;38.78;;;18.38;;
78004;SDS011;67209;51.698;-0.292;2023-04-30T04:16:01;38.08;;;17.77;;
78004;SDS011;67209;51.698;-0.292;2023-04-30T04:18:27;44.72;;;19.08;;
78004;SDS011;67209;51.698;-0.292;2023-04-30T04:20:54;41.53;;;18.58;;
78004;SDS011;67209;51.698;-0.292;2023-04-30T04:23:20;38.80;;;18.85;;
78004;SDS011;67209;51.698;-0.292;2023-04-30T04:25:46;40.75;;;17.15;;
78004;SDS011;67209;51.698;-0.292;2023-04-30T04:28:16;41.78;;;17.20;;
78004;SDS011;67209;51.698;-0.292;2023-04-30T04:30:42;41.72;;;20.15;;
78004;SDS011;67209;51.698;-0.292;2023-04-30T04:33:08;44.15;;;19.38;;
78004;SDS011;67209;51.698;-0.292;2023-04-30T04:35:35;45.75;;;20.67;;
78004;SDS011;67209;51.698;-0.292;2023-04-30T04:38:02;43.92;;;19.95;;
78004;SDS011;67209;51.698;-0.292;2023-04-30T04:40:28;44.10;;;21.15;;
78004;SDS011;67209;51.698;-0.292;2023-04-30T04:42:54;46.20;;;20.40;;
78004;SDS011;67209;51.698;-0.292;2023-04-30T04:45:20;47.75;;;21.15;;
78004;SDS011;67209;51.698;-0.292;2023-04-30T04:47:47;46.25;;;20.67;;
78004;SDS011;67209;51.698;-0.292;2023-04-30T04:50:13;44.13;;;19.48;;
78004;SDS011;67209;51.698;-0.292;2023-04-30T04:52:40;48.92;;;18.25;;
78004;SDS011;67209;51.698;-0.292;2023-04-30T04:55:06;47.63;;;20.13;;
78004;SDS011;67209;51.698;-0.292;2023-04-30T04:57:32;48.83;;;20.20;;
78004;SDS011;67209;51.698;-0.292;2023-04-30T04:59:58;53.92;;;21.05;;
78004;SDS011;67209;51.698;-0.292;2023-04-30T05:02:24;52.65;;;21.45;;
78004;SDS011;67209;51.698;-0.292;2023-04-30T05:04:50;46.70;;;20.55;;
78004;SDS011;67209;51.698;-0.292;2023-04-30T05:07:16;50.28;;;21.23;;
78004;SDS011;67209;51.698;-0.292;2023-04-30T05:09:45;45.72;;;20.98;;
78004;SDS011;67209;51.698;-0.292;2023-04-30T05:12:12;50.13;;;21.95;;
78004;SDS011;67209;51.698;-0.292;2023-04-30T05:14:38;50.33;;;21.55;;
78004;SDS011;67209;51.698;-0.292;2023-04-30T05:17:04;47.60;;;21.45;;
78004;SDS011;67209;51.698;-0.292;2023-04-30T05:19:31;44.25;;;20.38;;
78004;SDS011;67209;51.698;-0.292;2023-04-30T05:21:57;51.17;;;22.02;;
78004;SDS011;67209;51.698;-0.292;2023-04-30T05:24:25;45.22;;;21.33;;
78004;SDS011;67209;51.698;-0.292;2023-04-30T05:26:51;44.88;;;19.55;;
78004;SDS011;67209;51.698;-0.292;2023-04-30T05:29:17;50.47;;;20.67;;
78004;SDS011;67209;51.698;-0.292;2023-04-30T05:31:43;40.88;;;19.30;;
78004;SDS011;67209;51.698;-0.292;2023-04-30T05:34:09;48.65;;;21.02;;
78004;SDS011;67209;51.698;-0.292;2023-04-30T05:36:36;44.08;;;19.77;;
78004;SDS011;67209;51.698;-0.292;2023-04-30T05:39:02;45.50;;;19.63;;
78004;SDS011;67209;51.698;-0.292;2023-04-30T05:41:28;43.35;;;19.45;;
78004;SDS011;67209;51.698;-0.292;2023-04-30T05:43:54;45.97;;;20.08;;
78004;SDS011;67209;51.698;-0.292;2023-04-30T05:46:20;44.70;;;19.75;;
78004;SDS011;67209;51.698;-0.292;2023-04-30T05:48:46;46.17;;;21.13;;
78004;SDS011;67209;51.698;-0.292;2023-04-30T05:51:12;47.17;;;20.25;;
78004;SDS011;67209;51.698;-0.292;2023-04-30T05:53:38;42.63;;;19.98;;
78004;SDS011;67209;51.698;-0.292;2023-04-30T05:56:04;45.42;;;19.60;;
78004;SDS011;67209;51.698;-0.292;2023-04-30T05:58:30;41.15;;;18.63;;
78004;SDS011;67209;51.698;-0.292;2023-04-30T06:00:57;42.05;;;19.70;;
78004;SDS011;67209;51.698;-0.292;2023-04-30T06:03:23;38.22;;;18.25;;
78004;SDS011;67209;51.698;-0.292;2023-04-30T06:05:49;43.40;;;19.23;;
78004;SDS011;67209;51.698;-0.292;2023-04-30T06:08:15;45.53;;;19.25;;
78004;SDS011;67209;51.698;-0.292;2023-04-30T06:10:41;39.90;;;19.55;;
78004;SDS011;67209;51.698;-0.292;2023-04-30T06:13:07;35.65;;;17.42;;
78004;SDS011;67209;51.698;-0.292;2023-04-30T06:15:33;41.83;;;18.52;;
78004;SDS011;67209;51.698;-0.292;2023-04-30T06:18:00;35.33;;;17.77;;
78004;SDS011;67209;51.698;-0.292;2023-04-30T06:20:26;37.30;;;20.20;;
78004;SDS011;67209;51.698;-0.292;2023-04-30T06:22:52;37.30;;;18.42;;
78004;SDS011;67209;51.698;-0.292;2023-04-30T06:25:18;40.78;;;18.15;;
78004;SDS011;67209;51.698;-0.292;2023-04-30T06:27:45;35.55;;;18.88;;
78004;SDS011;67209;51.698;-0.292;2023-04-30T06:30:11;35.80;;;19.00;;
78004;SDS011;67209;51.698;-0.292;2023-04-30T06:32:37;37.85;;;19.42;;
78004;SDS011;67209;51.698;-0.292;2023-04-30T06:35:03;36.22;;;18.08;;
78004;SDS011;67209;51.698;-0.292;2023-04-30T06:37:29;37.10;;;18.85;;
78004;SDS011;67209;51.698;-0.292;2023-04-30T06:40:01;41.63;;;19.92;;
78004;SDS011;67209;51.698;-0.292;2023-04-30T06:42:27;35.20;;;17.98;;
78004;SDS011;67209;51.698;-0.292;2023-04-30T06:44:58;41.03;;;18.75;;
78004;SDS011;67209;51.698;-0.292;2023-04-30T06:47:25;38.85;;;19.30;;
78004;SDS011;67209;51.698;-0.292;2023-04-30T06:49:51;40.80;;;18.83;;
78004;SDS011;67209;51.698;-0.292;2023-04-30T06:52:17;38.67;;;19.00;;
78004;SDS011;67209;51.698;-0.292;2023-04-30T06:54:43;40.47;;;18.38;;
78004;SDS011;67209;51.698;-0.292;2023-04-30T06:57:09;42.60;;;19.42;;
78004;SDS011;67209;51.698;-0.292;2023-04-30T06:59:36;36.42;;;19.08;;
78004;SDS011;67209;51.698;-0.292;2023-04-30T07:02:03;42.40;;;18.58;;
78004;SDS011;67209;51.698;-0.292;2023-04-30T07:04:29;40.08;;;18.63;;
78004;SDS011;67209;51.698;-0.292;2023-04-30T07:06:55;36.78;;;17.48;;
78004;SDS011;67209;51.698;-0.292;2023-04-30T07:09:21;35.28;;;17.00;;
78004;SDS011;67209;51.698;-0.292;2023-04-30T07:11:47;36.03;;;17.88;;
78004;SDS011;67209;51.698;-0.292;2023-04-30T07:14:15;40.80;;;16.92;;
78004;SDS011;67209;51.698;-0.292;2023-04-30T07:16:41;37.17;;;19.27;;
78004;SDS011;67209;51.698;-0.292;2023-04-30T07:19:07;36.05;;;17.45;;
78004;SDS011;67209;51.698;-0.292;2023-04-30T07:21:33;34.58;;;17.80;;
78004;SDS011;67209;51.698;-0.292;2023-04-30T07:23:59;34.13;;;17.13;;
78004;SDS011;67209;51.698;-0.292;2023-04-30T07:26:25;36.47;;;17.88;;
78004;SDS011;67209;51.698;-0.292;2023-04-30T07:28:51;35.47;;;17.55;;
78004;SDS011;67209;51.698;-0.292;2023-04-30T07:31:17;35.47;;;17.17;;
78004;SDS011;67209;51.698;-0.292;2023-04-30T07:33:43;32.13;;;17.85;;
78004;SDS011;67209;51.698;-0.292;2023-04-30T07:36:09;35.45;;;17.52;;
78004;SDS011;67209;51.698;-0.292;2023-04-30T07:38:35;33.53;;;16.92;;
78004;SDS011;67209;51.698;-0.292;2023-04-30T07:41:01;40.00;;;19.15;;
78004;SDS011;67209;51.698;-0.292;2023-04-30T07:43:28;38.60;;;17.98;;
78004;SDS011;67209;51.698;-0.292;2023-04-30T07:45:55;33.88;;;16.88;;
78004;SDS011;67209;51.698;-0.292;2023-04-30T07:48:21;35.83;;;17.77;;
78004;SDS011;67209;51.698;-0.292;2023-04-30T07:50:47;32.38;;;16.05;;
78004;SDS011;67209;51.698;-0.292;2023-04-30T07:53:13;36.90;;;18.33;;
78004;SDS011;67209;51.698;-0.292;2023-04-30T07:55:39;42.55;;;18.42;;
78004;SDS011;67209;51.698;-0.292;2023-04-30T07:58:06;31.92;;;15.77;;
78004;SDS011;67209;51.698;-0.292;2023-04-30T08:00:32;34.53;;;16.40;;
78004;SDS011;67209;51.698;-0.292;2023-04-30T08:02:58;36.33;;;17.45;;
78004;SDS011;67209;51.698;-0.292;2023-04-30T08:05:24;34.70;;;17.45;;
78004;SDS011;67209;51.698;-0.292;2023-04-30T08:07:50;36.40;;;17.95;;
78004;SDS011;67209;51.698;-0.292;2023-04-30T08:10:17;30.67;;;15.68;;
78004;SDS011;67209;51.698;-0.292;2023-04-30T08:12:43;31.73;;;15.52;;
78004;SDS011;67209;51.698;-0.292;2023-04-30T08:15:09;33.65;;;15.57;;
78004;SDS011;67209;51.698;-0.292;2023-04-30T08:17:35;32.20;;;16.33;;
78004;SDS011;67209;51.698;-0.292;2023-04-30T08:20:04;31.17;;;15.05;;
78004;SDS011;67209;51.698;-0.292;2023-04-30T08:22:30;31.88;;;14.95;;
78004;SDS011;67209;51.698;-0.292;2023-04-30T08:24:56;31.25;;;15.45;;
78004;SDS011;67209;51.698;-0.292;2023-04-30T08:27:25;30.27;;;15.20;;
78004;SDS011;67209;51.698;-0.292;2023-04-30T08:29:51;31.83;;;15.98;;
78004;SDS011;67209;51.698;-0.292;2023-04-30T08:32:18;29.45;;;16.08;;
78004;SDS011;67209;51.698;-0.292;2023-04-30T08:34:44;31.98;;;14.68;;
78004;SDS011;67209;51.698;-0.292;2023-04-30T08:37:10;28.00;;;15.55;;
78004;SDS011;67209;51.698;-0.292;2023-04-30T08:39:36;26.73;;;14.65;;
78004;SDS011;67209;51.698;-0.292;2023-04-30T08:42:03;27.30;;;14.00;;
78004;SDS011;67209;51.698;-0.292;2023-04-30T08:44:32;27.50;;;14.60;;
78004;SDS011;67209;51.698;-0.292;2023-04-30T08:47:00;24.45;;;13.30;;
78004;SDS011;67209;51.698;-0.292;2023-04-30T08:49:26;29.95;;;14.63;;
78004;SDS011;67209;51.698;-0.292;2023-04-30T08:51:56;24.95;;;13.68;;
78004;SDS011;67209;51.698;-0.292;2023-04-30T08:54:24;24.77;;;13.38;;
78004;SDS011;67209;51.698;-0.292;2023-04-30T08:56:50;26.50;;;14.20;;
78004;SDS011;67209;51.698;-0.292;2023-04-30T08:59:16;24.80;;;14.05;;
78004;SDS011;67209;51.698;-0.292;2023-04-30T09:01:42;22.83;;;12.98;;
78004;SDS011;67209;51.698;-0.292;2023-04-30T09:04:08;22.48;;;11.52;;
78004;SDS011;67209;51.698;-0.292;2023-04-30T09:06:35;25.52;;;12.65;;
78004;SDS011;67209;51.698;-0.292;2023-04-30T09:09:11;27.40;;;13.65;;
78004;SDS011;67209;51.698;-0.292;2023-04-30T09:11:37;22.95;;;12.57;;
78004;SDS011;67209;51.698;-0.292;2023-04-30T09:14:03;27.50;;;13.70;;
78004;SDS011;67209;51.698;-0.292;2023-04-30T09:16:43;21.20;;;11.45;;
78004;SDS011;67209;51.698;-0.292;2023-04-30T09:19:19;22.95;;;12.40;;
78004;SDS011;67209;51.698;-0.292;2023-04-30T09:21:47;21.05;;;12.98;;
78004;SDS011;67209;51.698;-0.292;2023-04-30T09:24:13;22.88;;;12.75;;
78004;SDS011;67209;51.698;-0.292;2023-04-30T09:26:39;23.17;;;11.52;;
78004;SDS011;67209;51.698;-0.292;2023-04-30T09:29:05;16.88;;;7.85;;
78004;SDS011;67209;51.698;-0.292;2023-04-30T09:31:35;20.42;;;11.27;;
78004;SDS011;67209;51.698;-0.292;2023-04-30T09:34:01;21.27;;;11.45;;
78004;SDS011;67209;51.698;-0.292;2023-04-30T09:36:27;18.73;;;11.38;;
78004;SDS011;67209;51.698;-0.292;2023-04-30T09:38:54;21.02;;;12.65;;
78004;SDS011;67209;51.698;-0.292;2023-04-30T09:41:24;19.67;;;10.93;;
78004;SDS011;67209;51.698;-0.292;2023-04-30T09:43:51;21.00;;;12.00;;
78004;SDS011;67209;51.698;-0.292;2023-04-30T09:46:18;19.60;;;11.23;;
78004;SDS011;67209;51.698;-0.292;2023-04-30T09:48:44;21.45;;;11.65;;
78004;SDS011;67209;51.698;-0.292;2023-04-30T09:51:10;22.20;;;11.90;;
78004;SDS011;67209;51.698;-0.292;2023-04-30T09:53:37;17.27;;;9.38;;
78004;SDS011;67209;51.698;-0.292;2023-04-30T09:56:06;23.08;;;12.38;;
78004;SDS011;67209;51.698;-0.292;2023-04-30T09:58:35;20.15;;;11.95;;
78004;SDS011;67209;51.698;-0.292;2023-04-30T10:01:04;24.70;;;12.95;;
78004;SDS011;67209;51.698;-0.292;2023-04-30T10:03:32;22.30;;;12.15;;
78004;SDS011;67209;51.698;-0.292;2023-04-30T10:05:58;21.45;;;11.70;;
78004;SDS011;67209;51.698;-0.292;2023-04-30T10:08:33;22.35;;;12.45;;
78004;SDS011;67209;51.698;-0.292;2023-04-30T10:11:04;18.98;;;10.98;;
78004;SDS011;67209;51.698;-0.292;2023-04-30T10:13:32;20.80;;;11.85;;
78004;SDS011;67209;51.698;-0.292;2023-04-30T10:16:02;21.73;;;12.32;;
78004;SDS011;67209;51.698;-0.292;2023-04-30T10:18:36;20.17;;;10.98;;
78004;SDS011;67209;51.698;-0.292;2023-04-30T10:21:04;17.67;;;9.68;;
78004;SDS011;67209;51.698;-0.292;2023-04-30T10:23:36;16.63;;;8.63;;
78004;SDS011;67209;51.698;-0.292;2023-04-30T10:26:03;14.48;;;8.55;;
78004;SDS011;67209;51.698;-0.292;2023-04-30T10:28:31;14.52;;;8.48;;
78004;SDS011;67209;51.698;-0.292;2023-04-30T10:30:57;14.48;;;8.00;;
78004;SDS011;67209;51.698;-0.292;2023-04-30T10:35:56;9.48;;;5.78;;
78004;SDS011;67209;51.698;-0.292;2023-04-30T10:38:25;13.25;;;7.80;;
78004;SDS011;67209;51.698;-0.292;2023-04-30T10:40:54;12.35;;;7.53;;
78004;SDS011;67209;51.698;-0.292;2023-04-30T10:43:24;11.20;;;6.75;;
78004;SDS011;67209;51.698;-0.292;2023-04-30T10:45:50;14.23;;;7.28;;
78004;SDS011;67209;51.698;-0.292;2023-04-30T10:48:16;14.45;;;7.72;;
78004;SDS011;67209;51.698;-0.292;2023-04-30T10:50:49;12.20;;;6.43;;
78004;SDS011;67209;51.698;-0.292;2023-04-30T10:53:17;10.00;;;6.47;;
78004;SDS011;67209;51.698;-0.292;2023-04-30T10:55:46;10.27;;;5.47;;
78004;SDS011;67209;51.698;-0.292;2023-04-30T10:58:23;11.77;;;6.80;;
78004;SDS011;67209;51.698;-0.292;2023-04-30T11:03:34;10.27;;;6.82;;
78004;SDS011;67209;51.698;-0.292;2023-04-30T11:06:06;11.18;;;5.80;;
78004;SDS011;67209;51.698;-0.292;2023-04-30T11:08:34;9.02;;;6.47;;
78004;SDS011;67209;51.698;-0.292;2023-04-30T11:11:03;12.57;;;7.70;;
78004;SDS011;67209;51.698;-0.292;2023-04-30T11:16:33;10.32;;;5.43;;
78004;SDS011;67209;51.698;-0.292;2023-04-30T11:19:09;11.40;;;6.35;;
78004;SDS011;67209;51.698;-0.292;2023-04-30T11:21:39;8.75;;;6.30;;
78004;SDS011;67209;51.698;-0.292;2023-04-30T11:24:05;11.77;;;6.82;;
78004;SDS011;67209;51.698;-0.292;2023-04-30T11:29:16;11.25;;;6.50;;
78004;SDS011;67209;51.698;-0.292;2023-04-30T11:31:42;10.50;;;6.75;;
78004;SDS011;67209;51.698;-0.292;2023-04-30T11:34:08;11.30;;;7.07;;
78004;SDS011;67209;51.698;-0.292;2023-04-30T11:36:35;12.20;;;6.68;;
78004;SDS011;67209;51.698;-0.292;2023-04-30T11:39:01;11.32;;;6.97;;
78004;SDS011;67209;51.698;-0.292;2023-04-30T11:41:30;12.32;;;7.18;;
78004;SDS011;67209;51.698;-0.292;2023-04-30T11:43:56;12.45;;;7.25;;
78004;SDS011;67209;51.698;-0.292;2023-04-30T11:46:22;11.15;;;6.82;;
78004;SDS011;67209;51.698;-0.292;2023-04-30T11:48:48;11.90;;;7.03;;
78004;SDS011;67209;51.698;-0.292;2023-04-30T11:51:18;11.40;;;6.68;;
78004;SDS011;67209;51.698;-0.292;2023-04-30T11:53:48;12.77;;;6.60;;
78004;SDS011;67209;51.698;-0.292;2023-04-30T11:56:18;8.13;;;5.82;;
78004;SDS011;67209;51.698;-0.292;2023-04-30T11:58:45;11.35;;;7.75;;
78004;SDS011;67209;51.698;-0.292;2023-04-30T12:01:11;12.68;;;6.95;;
78004;SDS011;67209;51.698;-0.292;2023-04-30T12:03:42;7.32;;;4.90;;
78004;SDS011;67209;51.698;-0.292;2023-04-30T12:06:08;13.77;;;7.82;;
78004;SDS011;67209;51.698;-0.292;2023-04-30T12:08:35;12.40;;;7.93;;
78004;SDS011;67209;51.698;-0.292;2023-04-30T12:11:02;13.60;;;7.90;;
78004;SDS011;67209;51.698;-0.292;2023-04-30T12:13:30;9.57;;;5.93;;
78004;SDS011;67209;51.698;-0.292;2023-04-30T12:15:56;7.70;;;3.90;;
78004;SDS011;67209;51.698;-0.292;2023-04-30T12:18:23;10.80;;;5.85;;
78004;SDS011;67209;51.698;-0.292;2023-04-30T12:20:50;9.52;;;6.78;;
78004;SDS011;67209;51.698;-0.292;2023-04-30T12:23:16;9.30;;;6.18;;
78004;SDS011;67209;51.698;-0.292;2023-04-30T12:25:42;10.65;;;6.65;;
78004;SDS011;67209;51.698;-0.292;2023-04-30T12:28:09;9.73;;;6.32;;
78004;SDS011;67209;51.698;-0.292;2023-04-30T12:30:35;11.40;;;7.45;;
78004;SDS011;67209;51.698;-0.292;2023-04-30T12:33:01;8.48;;;5.68;;
78004;SDS011;67209;51.698;-0.292;2023-04-30T12:35:28;8.73;;;6.03;;
78004;SDS011;67209;51.698;-0.292;2023-04-30T12:38:02;10.65;;;6.82;;
78004;SDS011;67209;51.698;-0.292;2023-04-30T12:40:28;9.30;;;6.07;;
78004;SDS011;67209;51.698;-0.292;2023-04-30T12:48:08;11.30;;;6.50;;
78004;SDS011;67209;51.698;-0.292;2023-04-30T12:50:34;7.88;;;5.72;;
78004;SDS011;67209;51.698;-0.292;2023-04-30T12:53:01;9.63;;;6.13;;
78004;SDS011;67209;51.698;-0.292;2023-04-30T12:55:27;10.65;;;5.90;;
78004;SDS011;67209;51.698;-0.292;2023-04-30T12:58:07;9.70;;;5.75;;
78004;SDS011;67209;51.698;-0.292;2023-04-30T13:03:12;10.10;;;6.07;;
78004;SDS011;67209;51.698;-0.292;2023-04-30T13:05:39;10.25;;;6.57;;
78004;SDS011;67209;51.698;-0.292;2023-04-30T13:08:05;8.93;;;5.85;;
78004;SDS011;67209;51.698;-0.292;2023-04-30T13:10:32;6.85;;;3.92;;
78004;SDS011;67209;51.698;-0.292;2023-04-30T13:12:58;7.45;;;5.10;;
78004;SDS011;67209;51.698;-0.292;2023-04-30T13:15:24;8.98;;;6.00;;
78004;SDS011;67209;51.698;-0.292;2023-04-30T13:17:51;6.53;;;4.95;;
78004;SDS011;67209;51.698;-0.292;2023-04-30T13:20:17;7.65;;;4.55;;
78004;SDS011;67209;51.698;-0.292;2023-04-30T13:22:43;8.15;;;4.80;;
78004;SDS011;67209;51.698;-0.292;2023-04-30T13:25:10;6.13;;;4.45;;
78004;SDS011;67209;51.698;-0.292;2023-04-30T13:27:36;6.13;;;5.25;;
78004;SDS011;67209;51.698;-0.292;2023-04-30T13:30:02;8.18;;;4.95;;
78004;SDS011;67209;51.698;-0.292;2023-04-30T13:32:28;6.38;;;4.60;;
78004;SDS011;67209;51.698;-0.292;2023-04-30T13:34:54;7.43;;;5.25;;
78004;SDS011;67209;51.698;-0.292;2023-04-30T13:37:22;7.75;;;4.70;;
78004;SDS011;67209;51.698;-0.292;2023-04-30T13:39:48;18.48;;;6.82;;
78004;SDS011;67209;51.698;-0.292;2023-04-30T13:42:14;11.30;;;6.20;;
78004;SDS011;67209;51.698;-0.292;2023-04-30T13:44:40;10.60;;;5.38;;
78004;SDS011;67209;51.698;-0.292;2023-04-30T13:47:06;11.50;;;6.05;;
78004;SDS011;67209;51.698;-0.292;2023-04-30T13:49:35;9.73;;;5.88;;
78004;SDS011;67209;51.698;-0.292;2023-04-30T13:52:04;8.68;;;5.68;;
78004;SDS011;67209;51.698;-0.292;2023-04-30T13:54:30;12.48;;;6.95;;
78004;SDS011;67209;51.698;-0.292;2023-04-30T13:56:57;8.50;;;5.85;;
78004;SDS011;67209;51.698;-0.292;2023-04-30T13:59:26;9.55;;;5.68;;
78004;SDS011;67209;51.698;-0.292;2023-04-30T14:01:52;8.07;;;5.75;;
78004;SDS011;67209;51.698;-0.292;2023-04-30T14:04:18;8.77;;;5.60;;
78004;SDS011;67209;51.698;-0.292;2023-04-30T14:06:44;7.55;;;5.32;;
78004;SDS011;67209;51.698;-0.292;2023-04-30T14:09:12;9.38;;;5.70;;
78004;SDS011;67209;51.698;-0.292;2023-04-30T14:11:38;8.32;;;6.25;;
78004;SDS011;67209;51.698;-0.292;2023-04-30T14:14:04;9.27;;;7.10;;
78004;SDS011;67209;51.698;-0.292;2023-04-30T14:16:31;9.40;;;6.57;;
78004;SDS011;67209;51.698;-0.292;2023-04-30T14:18:57;8.75;;;4.30;;
78004;SDS011;67209;51.698;-0.292;2023-04-30T14:21:23;8.20;;;4.95;;
78004;SDS011;67209;51.698;-0.292;2023-04-30T14:23:49;10.15;;;5.63;;
78004;SDS011;67209;51.698;-0.292;2023-04-30T14:26:16;8.63;;;5.47;;
78004;SDS011;67209;51.698;-0.292;2023-04-30T14:28:42;9.73;;;5.53;;
78004;SDS011;67209;51.698;-0.292;2023-04-30T14:31:08;8.43;;;5.82;;
78004;SDS011;67209;51.698;-0.292;2023-04-30T14:33:34;8.02;;;6.18;;
78004;SDS011;67209;51.698;-0.292;2023-04-30T14:36:00;7.43;;;5.32;;
78004;SDS011;67209;51.698;-0.292;2023-04-30T14:38:26;6.32;;;4.15;;
78004;SDS011;67209;51.698;-0.292;2023-04-30T14:40:52;5.60;;;4.05;;
78004;SDS011;67209;51.698;-0.292;2023-04-30T14:43:18;7.05;;;4.65;;
78004;SDS011;67209;51.698;-0.292;2023-04-30T14:45:45;6.60;;;4.93;;
78004;SDS011;67209;51.698;-0.292;2023-04-30T14:48:11;6.38;;;4.68;;
78004;SDS011;67209;51.698;-0.292;2023-04-30T14:50:37;6.28;;;4.72;;